Terminal Aerodrome Forecast
Issued by NWS

Home | Current Version | Previous Version | Text Only | Print | Product List | Glossary On
Versions: 1 2 3 4 5 6 7 8 9 10 11 12 13 14 15
000
FTUS43 KGRR 291731
TAFJXN
TAF
KJXN 291731Z 2918/3018 06010KT P6SM -SHRA OVC045
     FM292100 06012G18KT 5SM -SHRA BR OVC020
     FM300000 06015G24KT 5SM -SHRA BR OVC020
     FM301000 11012G18KT 4SM BR VCTS OVC007CB
     FM301500 12008KT 2SM BR VCTS OVC003CB=

USA.gov is the U.S. government's official web portal to all federal, state and local government web resources and services.